Time;durP1;ratioP1;P1;durP2;ratioP2;P2;SDS_P1;SDS_P2;PMS_P1;PMS_P2;Temp;Humidity;BMP_temperature;BMP_pressure;BME280_temperature;BME280_humidity;BME280_pressure;Samples;Min_cycle;Max_cycle;Signal;HPM_P1;HPM_P2
2022/04/25 00:00:08;;;;;;;7.13;4.47;;;10.00;67.60;;;;;;5087081;28;20107;-71
2022/04/25 00:02:34;;;;;;;6.45;4.72;;;10.00;67.70;;;;;;5090511;28;20123;-72
2022/04/25 00:04:59;;;;;;;7.00;4.35;;;10.00;67.90;;;;;;5090571;28;20099;-71
2022/04/25 00:07:25;;;;;;;6.60;4.20;;;9.90;68.00;;;;;;5108653;28;20035;-70
2022/04/25 00:09:50;;;;;;;5.95;3.92;;;9.90;67.90;;;;;;5112491;28;20034;-70
2022/04/25 00:12:16;;;;;;;5.28;3.90;;;9.90;68.00;;;;;;5117541;28;20019;-70
2022/04/25 00:14:41;;;;;;;6.75;3.97;;;9.90;68.10;;;;;;5102958;28;20541;-71
2022/04/25 00:17:07;;;;;;;7.68;4.97;;;9.80;68.10;;;;;;5109227;28;20071;-69
2022/04/25 00:19:35;;;;;;;7.03;4.20;;;9.80;68.40;;;;;;5094303;28;20027;-69
2022/04/25 00:22:01;;;;;;;6.72;4.45;;;9.80;68.60;;;;;;5110321;28;20437;-69
2022/04/25 00:24:26;;;;;;;5.95;3.97;;;9.70;68.60;;;;;;5088519;28;20048;-70
2022/04/25 00:26:52;;;;;;;6.00;4.25;;;9.70;68.60;;;;;;5100298;28;20120;-70
2022/04/25 00:29:17;;;;;;;6.20;4.07;;;9.70;68.70;;;;;;5109146;28;20554;-71
2022/04/25 00:31:43;;;;;;;6.60;4.53;;;9.70;68.80;;;;;;5095253;28;20035;-71
2022/04/25 00:34:08;;;;;;;6.75;4.95;;;9.60;68.80;;;;;;5113118;28;20027;-71
2022/04/25 00:36:34;;;;;;;6.03;4.40;;;9.60;69.00;;;;;;5109308;28;20031;-72
2022/04/25 00:38:59;;;;;;;6.60;3.95;;;9.60;69.00;;;;;;5109939;28;20015;-75
2022/04/25 00:41:25;;;;;;;5.85;4.28;;;9.60;68.90;;;;;;5092118;28;20221;-73
2022/04/25 00:43:57;;;;;;;6.07;4.40;;;9.60;68.80;;;;;;5106627;28;20015;-74
2022/04/25 00:46:25;;;;;;;5.15;3.97;;;9.60;69.00;;;;;;5113416;28;20056;-72
2022/04/25 00:48:51;;;;;;;8.48;4.40;;;9.60;69.10;;;;;;5109332;28;20032;-72
2022/04/25 00:51:17;;;;;;;6.38;4.40;;;9.60;69.10;;;;;;5112843;28;20490;-73
2022/04/25 00:53:44;;;;;;;5.05;3.70;;;9.60;69.10;;;;;;5113270;28;20059;-73
2022/04/25 00:56:12;;;;;;;5.57;4.03;;;9.60;69.00;;;;;;5113041;28;20030;-73
2022/04/25 00:58:37;;;;;;;5.63;4.22;;;9.60;69.00;;;;;;5110878;28;20112;-73
2022/04/25 01:01:03;;;;;;;6.28;4.15;;;9.50;69.10;;;;;;5112472;28;20478;-72
2022/04/25 01:03:29;;;;;;;5.88;4.53;;;9.50;69.10;;;;;;5094259;28;20371;-74
2022/04/25 01:05:54;;;;;;;7.57;4.55;;;9.50;69.30;;;;;;5102758;28;20084;-73
2022/04/25 01:08:20;;;;;;;5.38;4.25;;;9.50;69.40;;;;;;5112378;28;20136;-73
2022/04/25 01:10:46;;;;;;;6.47;4.35;;;9.50;69.60;;;;;;5089409;28;20020;-74
2022/04/25 01:13:12;;;;;;;7.13;4.75;;;9.50;69.40;;;;;;5097797;28;20111;-73
2022/04/25 01:15:38;;;;;;;6.22;4.65;;;9.50;69.40;;;;;;5112532;28;20026;-73
2022/04/25 01:18:03;;;;;;;6.50;4.25;;;9.40;69.50;;;;;;5109305;28;20023;-73
2022/04/25 01:20:29;;;;;;;5.35;3.90;;;9.40;69.50;;;;;;5111791;27;20024;-71
2022/04/25 01:27:15;;;;;;;6.63;4.25;;;9.40;69.50;;;;;;5086584;28;20020;-72
2022/04/25 01:28:37;;;;;;;5.70;4.28;;;9.30;69.80;;;;;;5104518;28;20449;-72
2022/04/25 01:31:03;;;;;;;6.20;4.20;;;9.30;69.80;;;;;;5100063;28;20036;-72
2022/04/25 01:33:28;;;;;;;6.35;4.38;;;9.30;69.90;;;;;;5086932;28;20089;-73
2022/04/25 01:35:54;;;;;;;4.97;3.78;;;9.20;69.90;;;;;;5088339;28;20053;-73
2022/04/25 01:38:19;;;;;;;6.47;4.25;;;9.20;70.00;;;;;;5090660;28;20047;-72
2022/04/25 01:40:45;;;;;;;6.18;4.65;;;9.20;69.90;;;;;;5101923;28;20492;-71
2022/04/25 01:43:10;;;;;;;7.47;4.80;;;9.20;70.00;;;;;;5090472;28;20035;-71
2022/04/25 01:45:39;;;;;;;7.00;4.45;;;9.20;70.00;;;;;;5117701;27;20029;-72
2022/04/25 01:48:04;;;;;;;8.15;4.70;;;9.20;70.20;;;;;;5112249;28;20502;-72
2022/04/25 01:50:30;;;;;;;6.90;4.10;;;9.10;70.20;;;;;;5099947;28;20115;-72
2022/04/25 01:52:55;;;;;;;7.22;4.28;;;9.10;70.30;;;;;;5106359;27;20024;-72
2022/04/25 01:55:21;;;;;;;5.88;3.97;;;9.10;70.30;;;;;;5092435;28;20032;-72
2022/04/25 01:57:46;;;;;;;6.05;4.03;;;9.10;70.30;;;;;;5092656;28;20058;-71
2022/04/25 02:00:12;;;;;;;6.28;4.55;;;9.10;70.20;;;;;;5101021;28;20016;-72
2022/04/25 02:02:38;;;;;;;6.55;4.40;;;9.10;70.20;;;;;;5106204;28;20494;-71
2022/04/25 02:05:06;;;;;;;7.32;4.65;;;9.00;70.20;;;;;;5109068;28;20413;-72
2022/04/25 02:07:31;;;;;;;7.15;4.40;;;9.00;70.30;;;;;;5103217;28;20020;-71
2022/04/25 02:09:57;;;;;;;6.47;4.70;;;9.00;70.30;;;;;;5107167;28;20028;-72
2022/04/25 02:12:22;;;;;;;7.45;4.45;;;9.00;70.40;;;;;;5089838;28;20023;-72
2022/04/25 02:14:48;;;;;;;7.07;4.22;;;9.00;70.50;;;;;;5111140;28;20536;-71
2022/04/25 02:17:14;;;;;;;5.60;4.30;;;9.00;70.50;;;;;;5085169;28;20500;-71
2022/04/25 02:19:40;;;;;;;6.45;4.35;;;8.90;70.40;;;;;;5103375;28;20028;-71
2022/04/25 02:22:06;;;;;;;4.90;3.97;;;8.90;70.40;;;;;;5101702;28;20028;-71
2022/04/25 02:24:32;;;;;;;5.82;4.32;;;8.90;70.60;;;;;;5111215;28;20027;-71
2022/04/25 02:26:58;;;;;;;8.77;5.43;;;8.80;70.70;;;;;;5104304;28;20066;-70
2022/04/25 02:29:25;;;;;;;7.18;5.53;;;8.80;71.00;;;;;;5092568;28;20062;-70
2022/04/25 02:31:51;;;;;;;6.68;4.40;;;8.80;71.10;;;;;;5121012;27;20400;-70
2022/04/25 02:34:16;;;;;;;6.68;4.10;;;8.70;71.00;;;;;;5091177;28;20023;-71
2022/04/25 02:36:42;;;;;;;6.13;4.55;;;8.70;71.00;;;;;;5074295;28;20052;-69
2022/04/25 02:39:07;;;;;;;7.85;4.60;;;8.70;71.00;;;;;;5084458;28;20024;-70
2022/04/25 02:41:33;;;;;;;6.70;4.53;;;8.70;71.20;;;;;;5093686;28;20103;-72
2022/04/25 02:43:58;;;;;;;5.50;4.18;;;8.60;71.20;;;;;;5104082;28;20034;-71
2022/04/25 02:46:24;;;;;;;6.70;4.78;;;8.60;71.20;;;;;;5122192;27;20027;-72
2022/04/25 02:48:50;;;;;;;5.82;4.70;;;8.60;71.30;;;;;;5093527;28;20379;-71
2022/04/25 02:51:16;;;;;;;7.68;4.82;;;8.60;71.30;;;;;;5098619;28;20490;-71
2022/04/25 02:53:43;;;;;;;8.10;5.13;;;8.60;71.50;;;;;;5116974;27;20055;-72
2022/04/25 02:56:09;;;;;;;6.90;4.78;;;8.50;71.60;;;;;;5119421;27;20024;-72
2022/04/25 02:58:38;;;;;;;6.90;5.10;;;8.50;71.70;;;;;;5105198;28;20666;-72
2022/04/25 03:01:04;;;;;;;7.90;5.20;;;8.50;71.70;;;;;;5110395;28;20409;-72
2022/04/25 03:03:32;;;;;;;8.38;5.60;;;8.50;71.70;;;;;;5110373;28;20023;-71
2022/04/25 03:05:58;;;;;;;9.90;5.70;;;8.50;71.80;;;;;;5090466;28;20528;-72
2022/04/25 03:08:25;;;;;;;6.63;4.88;;;8.50;71.90;;;;;;5101676;28;20042;-72
2022/04/25 03:10:52;;;;;;;8.18;5.70;;;8.40;72.00;;;;;;5101271;28;20027;-71
2022/04/25 03:13:19;;;;;;;9.85;5.22;;;8.40;72.10;;;;;;5092271;28;20076;-72
2022/04/25 03:15:48;;;;;;;8.82;5.70;;;8.40;72.30;;;;;;5082259;28;20482;-72
2022/04/25 03:18:16;;;;;;;6.70;4.82;;;8.40;72.50;;;;;;5091552;28;20028;-72
2022/04/25 03:20:43;;;;;;;7.20;5.43;;;8.40;72.50;;;;;;5108848;28;20027;-71
2022/04/25 03:23:09;;;;;;;7.90;5.80;;;8.40;72.50;;;;;;5089491;28;20027;-71
2022/04/25 03:25:36;;;;;;;8.18;5.20;;;8.30;72.60;;;;;;5102428;28;20034;-71
2022/04/25 03:28:02;;;;;;;8.27;5.68;;;8.30;72.70;;;;;;5117043;28;20578;-71
2022/04/25 03:30:28;;;;;;;8.00;5.63;;;8.30;72.70;;;;;;5118465;28;20034;-69
2022/04/25 03:32:54;;;;;;;8.65;5.35;;;8.30;72.90;;;;;;5096727;28;20028;-71
2022/04/25 03:35:22;;;;;;;8.00;5.70;;;8.30;72.90;;;;;;5100419;28;20161;-70
2022/04/25 03:37:49;;;;;;;8.15;5.78;;;8.30;73.20;;;;;;5104944;28;20066;-68
2022/04/25 03:40:15;;;;;;;7.63;5.95;;;8.30;73.40;;;;;;5109414;28;20027;-71
2022/04/25 03:42:41;;;;;;;10.05;6.25;;;8.30;73.40;;;;;;5081669;28;20024;-71
2022/04/25 03:45:09;;;;;;;9.85;6.70;;;8.40;73.50;;;;;;5106873;28;20026;-71
2022/04/25 03:47:35;;;;;;;9.95;5.93;;;8.40;73.60;;;;;;5103455;28;20039;-71
2022/04/25 03:50:02;;;;;;;9.95;5.75;;;8.40;73.60;;;;;;5090828;28;20449;-70
2022/04/25 03:52:28;;;;;;;10.38;6.50;;;8.40;73.50;;;;;;5105542;28;20024;-72
2022/04/25 03:57:38;;;;;;;8.23;5.57;;;8.40;73.90;;;;;;5111735;28;20434;-71
2022/04/25 04:00:06;;;;;;;10.27;7.00;;;8.50;73.90;;;;;;5114216;28;20024;-71
2022/04/25 04:02:33;;;;;;;8.95;6.30;;;8.50;74.20;;;;;;5108167;28;20031;-70
2022/04/25 04:04:59;;;;;;;9.98;6.85;;;8.50;74.20;;;;;;5120919;27;20473;-70
2022/04/25 04:07:25;;;;;;;9.52;6.43;;;8.50;74.20;;;;;;5113091;27;20051;-70
2022/04/25 04:09:50;;;;;;;9.88;6.10;;;8.60;74.20;;;;;;5117821;27;20414;-71
2022/04/25 04:12:18;;;;;;;9.77;7.13;;;8.70;74.30;;;;;;5123069;27;20396;-71
2022/04/25 04:14:44;;;;;;;9.30;6.95;;;8.70;74.50;;;;;;5118214;27;20478;-72
2022/04/25 04:17:10;;;;;;;10.75;7.68;;;8.70;74.90;;;;;;5107344;27;20034;-73
2022/04/25 04:19:37;;;;;;;9.27;6.78;;;8.70;75.10;;;;;;5112326;27;20028;-72
2022/04/25 04:22:04;;;;;;;9.75;6.95;;;8.70;75.10;;;;;;5122653;27;20031;-71
2022/04/25 04:24:31;;;;;;;9.45;7.13;;;8.80;74.90;;;;;;5106251;27;20018;-68
2022/04/25 04:27:00;;;;;;;9.45;7.13;;;8.90;75.00;;;;;;5130969;27;20016;-72
2022/04/25 04:29:25;;;;;;;9.52;7.20;;;8.90;75.00;;;;;;5117281;27;20087;-69
2022/04/25 04:31:51;;;;;;;11.82;9.00;;;9.00;75.10;;;;;;5117057;27;20543;-70
2022/04/25 04:34:16;;;;;;;11.88;7.80;;;9.00;75.60;;;;;;5090099;28;20092;-71
2022/04/25 04:36:41;;;;;;;11.05;7.93;;;8.90;75.60;;;;;;5104353;28;20028;-70
2022/04/25 04:39:07;;;;;;;10.98;7.28;;;9.00;75.80;;;;;;5115686;27;20508;-71
2022/04/25 04:41:32;;;;;;;9.60;7.35;;;9.00;75.90;;;;;;5116345;27;20051;-71
2022/04/25 04:43:58;;;;;;;10.93;8.45;;;9.00;75.80;;;;;;5129965;27;20380;-71
2022/04/25 04:46:24;;;;;;;9.70;7.75;;;9.00;76.00;;;;;;5115153;27;20545;-71
2022/04/25 04:48:50;;;;;;;10.77;7.80;;;9.10;76.00;;;;;;5107093;28;20027;-70
2022/04/25 04:51:16;;;;;;;11.68;8.68;;;9.10;75.90;;;;;;5099584;28;20119;-70
2022/04/25 04:53:41;;;;;;;12.52;9.05;;;9.10;76.00;;;;;;5119069;28;20088;-71
2022/04/25 04:56:07;;;;;;;11.20;8.00;;;9.10;76.30;;;;;;5133211;28;20038;-70
2022/04/25 04:58:33;;;;;;;10.30;7.25;;;9.10;76.20;;;;;;5098487;28;20164;-71
2022/04/25 05:00:59;;;;;;;12.93;9.32;;;9.10;76.30;;;;;;5110300;28;20024;-71
2022/04/25 05:03:25;;;;;;;14.30;8.82;;;9.10;76.40;;;;;;5117933;28;20019;-71
2022/04/25 05:05:52;;;;;;;12.32;8.82;;;9.10;76.50;;;;;;5097357;28;20022;-72
2022/04/25 05:08:18;;;;;;;13.30;8.20;;;9.10;76.50;;;;;;5112715;28;20111;-71
2022/04/25 05:10:43;;;;;;;9.63;7.30;;;9.10;76.60;;;;;;5118405;27;20031;-71
2022/04/25 05:13:09;;;;;;;11.63;7.10;;;9.20;76.50;;;;;;5127683;27;20027;-71
2022/04/25 05:15:36;;;;;;;9.07;7.45;;;9.20;76.60;;;;;;5083445;28;20111;-71
2022/04/25 05:18:02;;;;;;;12.60;8.43;;;9.20;76.50;;;;;;5099770;28;20024;-71
2022/04/25 05:20:29;;;;;;;10.82;8.05;;;9.20;76.40;;;;;;5112710;28;20077;-72
2022/04/25 05:22:56;;;;;;;10.57;7.32;;;9.30;76.50;;;;;;5104367;28;20020;-71
2022/04/25 05:25:25;;;;;;;11.82;7.53;;;9.30;76.40;;;;;;5082963;28;20020;-71
2022/04/25 05:27:53;;;;;;;9.35;7.10;;;9.30;76.20;;;;;;5106453;28;20032;-71
2022/04/25 05:30:20;;;;;;;10.63;8.10;;;9.30;76.20;;;;;;5098548;28;20163;-72
2022/04/25 05:32:47;;;;;;;10.18;7.72;;;9.30;76.20;;;;;;5076081;28;20374;-72
2022/04/25 05:35:15;;;;;;;10.02;7.57;;;9.30;76.30;;;;;;5100224;28;20028;-71
2022/04/25 05:37:40;;;;;;;13.02;9.73;;;9.30;76.50;;;;;;5073624;28;20025;-72
2022/04/25 05:40:07;;;;;;;11.98;9.00;;;9.30;76.80;;;;;;5101017;28;20039;-69
2022/04/25 05:42:33;;;;;;;12.20;8.70;;;9.30;77.00;;;;;;5084031;28;20027;-69
2022/04/25 05:45:00;;;;;;;11.45;8.48;;;9.30;76.80;;;;;;5104010;28;20016;-71
2022/04/25 05:47:26;;;;;;;12.40;8.25;;;9.40;76.70;;;;;;5108848;27;20102;-71
2022/04/25 05:52:36;;;;;;;11.95;9.50;;;9.40;76.50;;;;;;5101442;28;20035;-71
2022/04/25 05:55:03;;;;;;;13.40;9.35;;;9.40;76.60;;;;;;5109794;28;20028;-70
2022/04/25 05:57:28;;;;;;;11.90;9.82;;;9.40;76.60;;;;;;5070508;28;20033;-71
2022/04/25 05:59:54;;;;;;;14.27;10.57;;;9.50;76.60;;;;;;5105265;27;20039;-71
2022/04/25 06:02:20;;;;;;;13.38;8.98;;;9.50;76.60;;;;;;5105931;28;20489;-73
2022/04/25 06:04:45;;;;;;;14.15;11.38;;;9.50;76.60;;;;;;5086883;28;20039;-71
2022/04/25 06:07:11;;;;;;;13.75;10.70;;;9.50;76.50;;;;;;5096873;28;20023;-72
2022/04/25 06:09:37;;;;;;;12.70;10.43;;;9.50;76.80;;;;;;5078474;27;20686;-72
2022/04/25 06:12:03;;;;;;;14.98;10.23;;;9.50;76.90;;;;;;5091842;28;20067;-72
2022/04/25 06:14:31;;;;;;;9.13;7.55;;;9.50;76.90;;;;;;5087701;28;20027;-71
2022/04/25 06:16:59;;;;;;;14.55;10.27;;;9.60;76.70;;;;;;5101256;28;21356;-71
2022/04/25 06:19:25;;;;;;;13.57;10.40;;;9.60;76.70;;;;;;5100985;27;20084;-70
2022/04/25 06:21:51;;;;;;;15.23;11.68;;;9.60;76.80;;;;;;5090843;28;20060;-72
2022/04/25 06:24:17;;;;;;;12.63;10.00;;;9.60;76.90;;;;;;5086678;28;20028;-72
2022/04/25 06:26:43;;;;;;;12.13;9.23;;;9.70;77.00;;;;;;5081233;28;20019;-70
2022/04/25 06:29:08;;;;;;;12.10;8.50;;;9.70;76.80;;;;;;5089394;28;20034;-72
2022/04/25 06:31:34;;;;;;;16.88;11.32;;;9.80;76.60;;;;;;5104627;27;20043;-72
2022/04/25 06:34:00;;;;;;;16.33;11.32;;;9.80;76.60;;;;;;5100527;27;20028;-72
2022/04/25 06:36:26;;;;;;;15.98;11.70;;;9.80;76.70;;;;;;5112287;27;20486;-72
2022/04/25 06:38:52;;;;;;;16.33;11.52;;;9.80;76.80;;;;;;5089380;28;20136;-72
2022/04/25 06:41:17;;;;;;;17.20;12.52;;;9.80;76.90;;;;;;5108116;28;20027;-71
2022/04/25 06:43:43;;;;;;;17.00;11.80;;;9.80;77.20;;;;;;5107702;28;20096;-72
2022/04/25 06:46:09;;;;;;;15.73;11.68;;;9.70;77.60;;;;;;5105536;28;20026;-71
2022/04/25 06:48:34;;;;;;;14.88;11.43;;;9.70;78.20;;;;;;5081750;28;20040;-72
2022/04/25 06:51:00;;;;;;;13.48;9.40;;;9.70;78.30;;;;;;5102142;28;20035;-71
2022/04/25 06:53:26;;;;;;;12.18;9.32;;;9.70;78.30;;;;;;5097322;28;20479;-71
2022/04/25 06:55:52;;;;;;;13.07;9.90;;;9.70;78.10;;;;;;5100889;27;20030;-72
2022/04/25 06:58:18;;;;;;;12.15;9.77;;;9.70;78.20;;;;;;5107070;27;20530;-70
2022/04/25 07:00:43;;;;;;;14.20;10.90;;;9.80;78.10;;;;;;5103561;28;20034;-71
2022/04/25 07:03:09;;;;;;;14.50;11.00;;;9.70;78.10;;;;;;5097640;28;20058;-71
2022/04/25 07:05:35;;;;;;;12.77;9.68;;;9.70;78.10;;;;;;5107733;28;20413;-72
2022/04/25 07:08:01;;;;;;;14.30;10.88;;;9.70;78.30;;;;;;5101461;28;20145;-72
2022/04/25 07:10:26;;;;;;;13.73;10.88;;;9.60;78.40;;;;;;5101475;28;20695;-71
2022/04/25 07:12:52;;;;;;;13.02;9.95;;;9.60;78.50;;;;;;5095153;27;20043;-73
2022/04/25 07:15:19;;;;;;;14.65;10.35;;;9.60;78.40;;;;;;5098851;28;20069;-71
2022/04/25 07:17:45;;;;;;;15.90;11.07;;;9.60;79.00;;;;;;5107394;27;20497;-72
2022/04/25 07:20:11;;;;;;;14.77;11.43;;;9.60;78.40;;;;;;5104667;27;20098;-71
2022/04/25 07:31:09;;;;;;;13.65;10.15;;;9.40;78.40;;;;;;5033593;28;20446;-71
2022/04/25 07:33:36;;;;;;;15.27;11.35;;;9.40;78.50;;;;;;5075391;28;20047;-71
2022/04/25 07:36:02;;;;;;;13.13;10.05;;;9.40;78.50;;;;;;5116563;28;20030;-71
2022/04/25 07:38:28;;;;;;;14.15;10.40;;;9.40;78.60;;;;;;5105049;28;20020;-72
2022/04/25 07:40:54;;;;;;;14.63;10.43;;;9.40;78.60;;;;;;5083854;28;20024;-70
2022/04/25 07:43:19;;;;;;;13.88;10.65;;;9.40;78.50;;;;;;5088809;28;20481;-72
2022/04/25 07:45:45;;;;;;;15.23;10.85;;;9.40;78.50;;;;;;5099217;28;20051;-71
2022/04/25 07:48:10;;;;;;;14.40;11.05;;;9.40;78.40;;;;;;5102077;28;20135;-72
2022/04/25 07:50:37;;;;;;;18.27;13.98;;;9.40;78.50;;;;;;5104434;28;20066;-71
2022/04/25 07:53:02;;;;;;;16.65;11.52;;;9.30;79.00;;;;;;5106968;28;20020;-72
2022/04/25 07:55:28;;;;;;;15.60;10.77;;;9.30;79.20;;;;;;5100402;28;20115;-71
2022/04/25 07:57:53;;;;;;;14.50;11.13;;;9.30;79.10;;;;;;5083749;28;20016;-72
2022/04/25 08:00:19;;;;;;;16.58;11.98;;;9.30;79.10;;;;;;5103664;28;20024;-72
2022/04/25 08:02:44;;;;;;;11.70;9.20;;;9.40;79.10;;;;;;5081048;28;20074;-72
2022/04/25 08:05:10;;;;;;;15.75;10.60;;;9.40;78.90;;;;;;5100697;28;20039;-72
2022/04/25 08:07:36;;;;;;;14.77;10.00;;;9.50;78.70;;;;;;5088233;28;20115;-72
2022/04/25 08:10:02;;;;;;;14.98;11.35;;;9.50;78.50;;;;;;5104667;28;20012;-72
2022/04/25 08:18:04;;;;;;;19.88;13.32;;;9.50;78.50;;;;;;5101953;28;20127;-72
2022/04/25 08:20:35;;;;;;;19.23;12.85;;;9.60;78.50;;;;;;5085488;28;20020;-71
2022/04/25 08:23:06;;;;;;;17.38;12.27;;;9.60;78.60;;;;;;5083687;28;20016;-72
2022/04/25 08:25:31;;;;;;;15.77;10.50;;;9.70;78.50;;;;;;5102326;28;20047;-72
2022/04/25 08:28:00;;;;;;;17.20;11.65;;;9.70;78.30;;;;;;5103171;28;20466;-72
2022/04/25 08:30:26;;;;;;;20.13;13.65;;;9.70;78.20;;;;;;5085620;28;20043;-72
2022/04/25 08:32:54;;;;;;;14.35;10.82;;;9.80;78.50;;;;;;5105467;28;20034;-72
2022/04/25 08:35:21;;;;;;;20.00;14.40;;;9.90;78.30;;;;;;5088986;28;20028;-72
2022/04/25 08:37:46;;;;;;;17.65;13.50;;;9.90;78.10;;;;;;5099725;28;20102;-70
2022/04/25 08:40:12;;;;;;;16.02;10.23;;;9.80;78.20;;;;;;5100779;28;20115;-70
2022/04/25 08:42:38;;;;;;;19.40;14.68;;;9.80;78.20;;;;;;5112850;27;20027;-71
2022/04/25 08:45:07;;;;;;;17.55;12.05;;;9.70;78.60;;;;;;5111961;27;20103;-71
2022/04/25 08:47:45;;;;;;;15.23;10.32;;;9.80;78.50;;;;;;5105832;27;20055;-71
2022/04/25 08:50:10;;;;;;;16.75;12.13;;;9.90;78.20;;;;;;5090695;28;20029;-70
2022/04/25 08:52:36;;;;;;;15.63;11.15;;;9.90;77.90;;;;;;5106805;27;20075;-71
2022/04/25 08:55:02;;;;;;;21.55;15.40;;;10.00;77.80;;;;;;5096495;27;20103;-73
2022/04/25 08:57:31;;;;;;;20.48;14.73;;;10.00;77.80;;;;;;5104743;27;20047;-72
2022/04/25 08:59:57;;;;;;;21.40;15.25;;;9.90;77.90;;;;;;5090204;28;20020;-71
2022/04/25 09:02:23;;;;;;;19.52;14.18;;;9.90;78.30;;;;;;5096511;28;20024;-71
2022/04/25 09:04:52;;;;;;;17.33;12.93;;;10.00;78.30;;;;;;5099363;28;20293;-71
2022/04/25 09:07:17;;;;;;;19.13;13.95;;;10.10;78.20;;;;;;5101922;28;20042;-72
2022/04/25 09:09:43;;;;;;;19.77;13.02;;;10.20;78.10;;;;;;5102558;27;20072;-72
2022/04/25 09:12:12;;;;;;;19.67;12.32;;;10.30;77.80;;;;;;5104392;27;20108;-72
2022/04/25 09:14:40;;;;;;;12.73;9.55;;;10.40;77.40;;;;;;5084511;28;20252;-73
2022/04/25 09:17:06;;;;;;;17.00;12.02;;;10.50;77.00;;;;;;5101724;28;20020;-73
2022/04/25 09:19:33;;;;;;;20.27;14.18;;;10.50;76.80;;;;;;5103018;28;20055;-72
2022/04/25 09:21:59;;;;;;;19.00;14.23;;;10.50;76.70;;;;;;5096849;28;20098;-72
2022/04/25 09:24:26;;;;;;;16.77;11.95;;;10.50;76.80;;;;;;5101317;28;22029;-73
2022/04/25 09:27:07;;;;;;;20.10;13.35;;;10.40;76.70;;;;;;5099664;28;20032;-73
2022/04/25 09:29:33;;;;;;;16.58;11.95;;;10.40;77.10;;;;;;5102137;28;20036;-72
2022/04/25 09:31:59;;;;;;;16.85;12.38;;;10.40;76.80;;;;;;5104972;28;20150;-71
2022/04/25 09:37:09;;;;;;;16.17;11.70;;;10.50;76.60;;;;;;5098294;28;20039;-73
2022/04/25 09:39:36;;;;;;;16.45;12.00;;;10.60;76.30;;;;;;5102861;28;20028;-72
2022/04/25 09:42:02;;;;;;;19.25;14.07;;;10.60;76.30;;;;;;5105837;28;20016;-72
2022/04/25 09:44:31;;;;;;;23.02;16.25;;;10.60;76.20;;;;;;5103402;28;20384;-71
2022/04/25 09:46:57;;;;;;;23.92;15.88;;;10.50;76.40;;;;;;5102418;28;20058;-73
2022/04/25 09:49:23;;;;;;;18.58;13.45;;;10.40;77.00;;;;;;5079561;28;20058;-72
2022/04/25 09:52:04;;;;;;;21.27;16.05;;;10.40;77.10;;;;;;5084582;28;20092;-72
2022/04/25 09:54:30;;;;;;;17.75;12.23;;;10.30;77.30;;;;;;5107040;28;20035;-73
2022/04/25 09:56:56;;;;;;;17.00;11.45;;;10.40;77.10;;;;;;5092330;28;20089;-73
2022/04/25 09:59:22;;;;;;;15.88;11.27;;;10.40;76.80;;;;;;5100695;28;20424;-74
2022/04/25 10:02:04;;;;;;;17.52;12.00;;;10.50;76.70;;;;;;5102202;28;20069;-74
2022/04/25 10:04:36;;;;;;;15.20;11.32;;;10.60;76.40;;;;;;5087460;28;20024;-72
2022/04/25 10:07:04;;;;;;;17.23;12.55;;;10.60;76.00;;;;;;5107165;28;20028;-74
2022/04/25 10:09:31;;;;;;;16.35;11.48;;;10.70;75.90;;;;;;5098882;28;20023;-74
2022/04/25 10:11:59;;;;;;;16.00;11.02;;;10.70;75.80;;;;;;5124494;28;20112;-75
2022/04/25 10:14:28;;;;;;;23.40;15.85;;;10.70;75.70;;;;;;5122431;28;20099;-72
2022/04/25 10:16:58;;;;;;;15.88;11.95;;;10.60;75.80;;;;;;5110565;27;20230;-75
2022/04/25 10:19:25;;;;;;;13.05;10.07;;;10.60;76.10;;;;;;5104821;28;20035;-75
2022/04/25 10:21:54;;;;;;;13.27;9.98;;;10.70;75.90;;;;;;5105666;27;20056;-73
2022/04/25 10:24:20;;;;;;;12.05;8.95;;;10.80;75.70;;;;;;5106870;28;20095;-72
2022/04/25 10:26:51;;;;;;;15.00;10.95;;;10.80;75.50;;;;;;5106100;28;20020;-72
2022/04/25 10:29:21;;;;;;;15.85;11.48;;;10.90;75.30;;;;;;5084502;28;20478;-70
2022/04/25 10:31:49;;;;;;;19.02;13.13;;;10.90;75.10;;;;;;5100319;28;20020;-71
2022/04/25 10:34:17;;;;;;;17.23;12.27;;;10.90;75.10;;;;;;5107987;27;20027;-72
2022/04/25 10:36:46;;;;;;;16.08;10.85;;;10.70;75.40;;;;;;5080492;28;21107;-72
2022/04/25 10:39:24;;;;;;;13.18;10.02;;;10.80;75.50;;;;;;5112776;28;20020;-70
2022/04/25 10:44:37;;;;;;;15.45;11.57;;;10.90;75.10;;;;;;5107400;28;20044;-71
2022/04/25 10:47:05;;;;;;;17.90;13.95;;;10.80;75.00;;;;;;5107795;27;20040;-72
2022/04/25 10:49:48;;;;;;;12.85;10.05;;;10.70;75.00;;;;;;5109394;27;20389;-72
2022/04/25 10:55:14;;;;;;;13.55;9.25;;;10.80;74.60;;;;;;5096622;28;20032;-73
2022/04/25 10:58:01;;;;;;;16.67;12.73;;;10.90;74.30;;;;;;5087905;28;20032;-70
2022/04/25 11:00:43;;;;;;;16.50;12.13;;;10.80;73.90;;;;;;5090684;28;20077;-71
2022/04/25 11:03:27;;;;;;;19.65;13.55;;;10.80;74.40;;;;;;5101613;28;20024;-71
2022/04/25 11:05:56;;;;;;;15.65;12.68;;;10.90;74.40;;;;;;5103298;28;20028;-73
2022/04/25 11:08:24;;;;;;;12.23;9.30;;;10.90;74.30;;;;;;5104873;27;20505;-75
2022/04/25 11:10:58;;;;;;;17.38;12.15;;;10.90;74.20;;;;;;5084468;28;20114;-72
2022/04/25 11:13:33;;;;;;;15.20;12.25;;;10.90;73.70;;;;;;5104881;28;20373;-72
2022/04/25 11:16:15;;;;;;;17.05;13.35;;;10.90;73.50;;;;;;5105672;28;20028;-72
2022/04/25 11:18:41;;;;;;;;;;;10.80;73.60;;;;;;5088098;28;20039;-72
2022/04/25 11:21:16;;;;;;;11.45;8.75;;;10.90;73.70;;;;;;5086414;28;19915;-71
2022/04/25 11:23:44;;;;;;;12.35;8.90;;;11.00;73.60;;;;;;5104246;28;20080;-72
2022/04/25 11:26:36;;;;;;;13.35;10.27;;;11.10;73.20;;;;;;5103230;28;20036;-71
2022/04/25 11:29:08;;;;;;;14.53;11.10;;;11.10;72.90;;;;;;5096717;28;20039;-72
2022/04/25 11:31:38;;;;;;;15.98;12.30;;;11.00;72.90;;;;;;5091945;28;20055;-71
2022/04/25 11:34:07;;;;;;;11.90;8.95;;;11.00;73.20;;;;;;5099733;28;20390;-71
2022/04/25 11:36:38;;;;;;;14.40;10.52;;;11.10;73.20;;;;;;5092754;28;20498;-71
2022/04/25 11:41:49;;;;;;;10.88;7.68;;;11.30;73.00;;;;;;5102873;28;20085;-75
2022/04/25 11:44:15;;;;;;;14.10;9.57;;;11.40;72.80;;;;;;5103645;28;20024;-75
2022/04/25 11:46:41;;;;;;;11.57;8.65;;;11.40;72.40;;;;;;5082826;28;20036;-73
2022/04/25 11:49:07;;;;;;;10.73;7.80;;;11.40;72.30;;;;;;5098316;28;20273;-73
2022/04/25 11:51:35;;;;;;;11.63;8.27;;;11.40;72.20;;;;;;5086046;28;20028;-74
2022/04/25 11:54:06;;;;;;;13.07;9.60;;;11.30;72.40;;;;;;5102518;28;20097;-74
2022/04/25 11:56:36;;;;;;;15.65;10.07;;;11.30;72.30;;;;;;5097520;28;20082;-74
2022/04/25 11:59:16;;;;;;;12.68;8.65;;;11.30;72.40;;;;;;5106089;28;20072;-73
2022/04/25 12:01:48;;;;;;;19.70;12.88;;;11.40;72.40;;;;;;5104170;28;20051;-72
2022/04/25 12:04:21;;;;;;;14.65;10.18;;;11.30;72.40;;;;;;5107361;28;20012;-72
2022/04/25 12:06:54;;;;;;;14.30;9.05;;;11.30;72.50;;;;;;5096250;28;20028;-72
2022/04/25 12:17:45;;;;;;;13.48;10.25;;;11.40;72.20;;;;;;5096960;28;20058;-72
2022/04/25 12:20:14;;;;;;;12.27;8.60;;;11.50;72.10;;;;;;5104008;27;20103;-72
2022/04/25 12:22:53;;;;;;;13.77;9.57;;;11.60;71.90;;;;;;5111993;27;20024;-73
2022/04/25 12:25:27;;;;;;;11.07;8.43;;;11.70;71.80;;;;;;5085344;28;20028;-72
2022/04/25 12:28:15;;;;;;;12.00;7.82;;;11.80;71.50;;;;;;5105523;28;20404;-73
2022/04/25 12:30:48;;;;;;;12.77;8.93;;;11.80;71.10;;;;;;5102286;27;20027;-75
2022/04/25 12:33:17;;;;;;;17.42;10.32;;;11.80;70.90;;;;;;5100719;27;20102;-73
2022/04/25 12:35:44;;;;;;;13.23;9.85;;;11.80;71.00;;;;;;5106541;27;20028;-73
2022/04/25 12:38:10;;;;;;;12.82;9.38;;;11.90;71.00;;;;;;5106265;27;20004;-70
2022/04/25 12:40:56;;;;;;;12.52;8.68;;;11.90;70.90;;;;;;5108609;27;20527;-73
2022/04/25 12:43:55;;;;;;;12.68;9.20;;;11.90;70.70;;;;;;5105580;27;20039;-73
2022/04/25 12:46:40;;;;;;;10.88;8.50;;;11.90;70.70;;;;;;5060459;28;20038;-72
2022/04/25 12:49:17;;;;;;;11.18;8.18;;;11.80;70.70;;;;;;5099945;27;20417;-72
2022/04/25 12:51:55;;;;;;;11.13;8.50;;;11.80;70.90;;;;;;5106675;28;20547;-74
2022/04/25 12:54:26;;;;;;;13.27;9.02;;;11.70;70.90;;;;;;5106427;28;20049;-73
2022/04/25 12:57:12;;;;;;;13.90;9.10;;;11.70;71.10;;;;;;5111444;27;20043;-72
2022/04/25 12:59:42;;;;;;;13.00;9.73;;;11.70;71.10;;;;;;5107613;27;20794;-72
2022/04/25 13:02:15;;;;;;;15.23;10.48;;;11.70;71.30;;;;;;5104774;28;20046;-73
2022/04/25 13:05:00;;;;;;;10.45;7.50;;;11.80;71.30;;;;;;5101770;28;20026;-72
2022/04/25 13:07:31;;;;;;;12.07;7.93;;;11.80;71.10;;;;;;5106156;27;20058;-73
2022/04/25 13:10:03;;;;;;;14.18;10.35;;;11.80;71.10;;;;;;5081467;28;20023;-73
2022/04/25 13:12:36;;;;;;;16.77;9.45;;;11.80;71.20;;;;;;5103960;28;20058;-73
2022/04/25 13:15:07;;;;;;;10.77;8.02;;;11.80;71.10;;;;;;5103601;28;20123;-74
2022/04/25 13:17:36;;;;;;;11.48;8.77;;;11.90;71.20;;;;;;5102446;28;20040;-73
2022/04/25 13:20:03;;;;;;;14.27;9.65;;;11.80;71.10;;;;;;5104584;28;20015;-72
2022/04/25 13:22:28;;;;;;;13.43;9.55;;;11.80;71.20;;;;;;5106420;27;20102;-73
2022/04/25 13:24:54;;;;;;;13.38;9.48;;;11.80;71.20;;;;;;5087470;28;20130;-71
2022/04/25 13:27:21;;;;;;;11.23;9.13;;;11.90;71.00;;;;;;5082512;28;20038;-70